Time;durP1;ratioP1;P1;durP2;ratioP2;P2;SDS_P1;SDS_P2;PMS_P1;PMS_P2;Temp;Humidity;BMP_temperature;BMP_pressure;BME280_temperature;BME280_humidity;BME280_pressure;Samples;Min_cycle;Max_cycle;Signal;HPM_P1;HPM_P2
2021/12/23 00:00:05;;;;;;;1.20;1.10;;;-2.70;99.90;;;;;;5091059;28;20550;-89
2021/12/23 00:02:31;;;;;;;2.00;1.90;;;-2.70;99.90;;;;;;5071787;28;20192;-88
2021/12/23 00:04:56;;;;;;;1.20;1.10;;;-2.70;99.90;;;;;;5089926;28;20455;-89
2021/12/23 00:07:22;;;;;;;1.50;1.40;;;-2.60;99.90;;;;;;5090713;28;20189;-89
2021/12/23 00:12:13;;;;;;;1.10;1.00;;;-2.60;99.90;;;;;;5090999;28;20565;-89
2021/12/23 00:14:39;;;;;;;1.17;1.07;;;-2.60;99.90;;;;;;5072856;28;20192;-89
2021/12/23 00:17:26;;;;;;;1.20;1.10;;;-2.60;99.90;;;;;;5090654;28;20272;-88
2021/12/23 00:23:24;;;;;;;1.47;1.37;;;-2.70;99.90;;;;;;5085953;28;20177;-89
2021/12/23 00:25:27;;;;;;;1.37;1.27;;;-2.60;99.90;;;;;;5089639;28;20430;-89
2021/12/23 00:27:52;;;;;;;1.20;1.10;;;-2.60;99.90;;;;;;5091008;28;20462;-90
2021/12/23 00:30:18;;;;;;;1.50;1.40;;;-2.60;99.90;;;;;;5090503;28;20239;-90
2021/12/23 00:32:43;;;;;;;1.20;1.10;;;-2.60;99.90;;;;;;5090272;28;20562;-88
2021/12/23 00:35:10;;;;;;;2.30;2.20;;;-2.60;99.90;;;;;;5090876;28;20197;-89
2021/12/23 00:37:40;;;;;;;1.53;1.43;;;-2.60;99.90;;;;;;5088886;28;20177;-89
2021/12/23 00:40:07;;;;;;;1.07;1.00;;;-2.60;99.90;;;;;;5084241;28;20458;-89
2021/12/23 00:42:34;;;;;;;2.60;2.50;;;-2.60;99.90;;;;;;5090192;28;20523;-90
2021/12/23 00:45:00;;;;;;;1.27;1.17;;;-2.60;99.90;;;;;;5090542;28;20443;-89
2021/12/23 00:47:25;;;;;;;1.00;0.93;;;-2.60;99.90;;;;;;5090528;28;20453;-89
2021/12/23 00:49:51;;;;;;;1.23;1.13;;;-2.60;99.90;;;;;;5072733;28;20481;-89
2021/12/23 00:52:23;;;;;;;1.97;1.87;;;-2.50;99.90;;;;;;5090218;28;20758;-89
2021/12/23 00:54:48;;;;;;;1.77;1.67;;;-2.50;99.90;;;;;;5086882;28;20181;-88
2021/12/23 00:57:13;;;;;;;0.97;0.97;;;-2.50;99.90;;;;;;5072405;28;20431;-89
2021/12/23 00:59:39;;;;;;;1.30;1.20;;;-2.50;99.90;;;;;;5090404;28;20656;-89
2021/12/23 01:02:08;;;;;;;2.50;2.33;;;-2.50;99.90;;;;;;5072474;28;20189;-90
2021/12/23 01:04:33;;;;;;;1.00;1.00;;;-2.60;99.90;;;;;;5089352;28;20260;-90
2021/12/23 01:06:59;;;;;;;1.70;1.60;;;-2.60;99.90;;;;;;5090637;28;20531;-90
2021/12/23 01:09:24;;;;;;;1.30;1.20;;;-2.60;99.90;;;;;;5086707;28;20220;-89
2021/12/23 01:11:51;;;;;;;2.17;2.00;;;-2.50;99.90;;;;;;5090667;28;20193;-90
2021/12/23 01:19:25;;;;;;;0.90;0.90;;;-2.50;99.90;;;;;;5090395;28;20675;-89
2021/12/23 01:21:51;;;;;;;0.90;0.90;;;-2.50;99.90;;;;;;5089987;28;20478;-89
2021/12/23 01:24:17;;;;;;;1.00;1.00;;;-2.50;99.90;;;;;;5088179;28;20532;-89
2021/12/23 01:26:43;;;;;;;1.17;1.07;;;-2.50;99.90;;;;;;5083882;28;20453;-89
2021/12/23 01:29:09;;;;;;;1.10;1.00;;;-2.50;99.90;;;;;;5073894;28;20631;-88
2021/12/23 01:31:38;;;;;;;1.27;1.20;;;-2.40;99.90;;;;;;5097338;28;20212;-89
2021/12/23 01:34:04;;;;;;;2.03;1.93;;;-2.50;99.90;;;;;;5096724;28;20472;-90
2021/12/23 01:36:30;;;;;;;6.20;3.40;;;-2.50;99.90;;;;;;5078778;28;21080;-90
2021/12/23 01:38:56;;;;;;;0.80;0.80;;;-2.50;99.90;;;;;;5079548;28;20526;-89
2021/12/23 01:41:23;;;;;;;0.90;0.90;;;-2.50;99.90;;;;;;5087551;28;20227;-89
2021/12/23 01:43:50;;;;;;;1.20;1.10;;;-2.50;99.90;;;;;;5095752;28;20431;-89
2021/12/23 01:46:16;;;;;;;1.20;1.10;;;-2.40;99.90;;;;;;5074715;28;20461;-88
2021/12/23 01:48:42;;;;;;;0.90;0.90;;;-2.50;99.90;;;;;;5090437;28;20514;-89
2021/12/23 01:51:08;;;;;;;1.10;1.00;;;-2.50;99.90;;;;;;5078322;28;20192;-89
2021/12/23 01:53:34;;;;;;;1.20;1.10;;;;;;;;;;5095805;28;20431;-89
2021/12/23 01:56:00;;;;;;;1.17;1.10;;;;;;;;;;5094609;28;20321;-88
2021/12/23 01:58:26;;;;;;;1.10;1.00;;;-2.60;99.90;;;;;;5096365;28;20437;-89
2021/12/23 02:00:52;;;;;;;2.20;2.10;;;-2.50;99.90;;;;;;5096676;28;20729;-89
2021/12/23 02:03:18;;;;;;;0.90;0.90;;;-2.50;99.90;;;;;;5095690;28;20184;-89
2021/12/23 02:05:44;;;;;;;0.90;0.90;;;-2.50;99.90;;;;;;5096244;28;20431;-89
2021/12/23 02:08:10;;;;;;;1.20;1.10;;;-2.50;99.90;;;;;;5077579;28;20462;-89
2021/12/23 02:10:36;;;;;;;1.33;1.23;;;-2.50;99.90;;;;;;5096334;28;20641;-89
2021/12/23 02:13:02;;;;;;;1.10;1.00;;;-2.50;99.90;;;;;;5086331;28;21118;-90
2021/12/23 02:15:29;;;;;;;0.90;0.90;;;-2.40;99.90;;;;;;5096602;28;20442;-89
2021/12/23 02:17:55;;;;;;;1.17;1.07;;;-2.40;99.90;;;;;;5095865;28;20791;-89
2021/12/23 02:20:29;;;;;;;1.93;1.80;;;-2.50;99.90;;;;;;5078053;28;20513;-89
2021/12/23 02:22:54;;;;;;;2.23;2.13;;;-2.40;99.90;;;;;;5095260;28;20565;-90
2021/12/23 02:25:20;;;;;;;1.27;1.17;;;-2.50;99.90;;;;;;5077505;28;20563;-89
2021/12/23 02:27:47;;;;;;;1.30;1.20;;;-2.50;99.90;;;;;;5095180;28;20177;-89
2021/12/23 02:30:22;;;;;;;1.30;1.20;;;-2.50;99.90;;;;;;5078245;28;20196;-90
2021/12/23 02:32:48;;;;;;;1.30;1.20;;;-2.40;99.90;;;;;;5095289;28;20851;-89
2021/12/23 02:35:16;;;;;;;1.03;0.93;;;-2.40;99.90;;;;;;5095851;28;20789;-89
2021/12/23 02:37:43;;;;;;;1.40;1.30;;;-2.40;99.90;;;;;;5078307;28;20542;-89
2021/12/23 02:40:11;;;;;;;1.13;1.03;;;-2.50;99.90;;;;;;5095354;28;20524;-90
2021/12/23 02:42:37;;;;;;;1.17;1.07;;;-2.40;99.90;;;;;;5097537;28;21075;-89
2021/12/23 02:45:09;;;;;;;1.20;1.10;;;-2.40;99.90;;;;;;5090590;28;20490;-88
2021/12/23 02:47:35;;;;;;;1.13;1.03;;;-2.40;99.90;;;;;;5091678;28;20242;-90
2021/12/23 02:50:00;;;;;;;2.70;2.50;;;-2.40;99.90;;;;;;5092398;28;20923;-90
2021/12/23 02:52:26;;;;;;;1.20;1.10;;;-2.50;99.90;;;;;;5074397;28;20476;-89
2021/12/23 02:54:56;;;;;;;1.20;1.10;;;-2.40;99.90;;;;;;5074670;28;20185;-89
2021/12/23 02:57:21;;;;;;;1.13;1.03;;;-2.40;99.90;;;;;;5091873;28;20173;-90
2021/12/23 02:59:47;;;;;;;2.77;2.60;;;-2.40;99.90;;;;;;5074969;28;20437;-89
2021/12/23 03:02:12;;;;;;;1.20;1.10;;;-2.40;99.90;;;;;;5089190;28;20259;-90
2021/12/23 03:04:38;;;;;;;1.20;1.10;;;-2.40;99.90;;;;;;5092353;28;20586;-90
2021/12/23 03:07:04;;;;;;;0.90;0.90;;;-2.40;99.90;;;;;;5092306;28;20196;-89
2021/12/23 03:09:29;;;;;;;3.53;1.97;;;-2.40;99.90;;;;;;5091817;28;20247;-90
2021/12/23 03:11:55;;;;;;;1.50;1.40;;;-2.40;99.90;;;;;;5092118;28;20197;-89
2021/12/23 03:14:20;;;;;;;3.33;1.93;;;-2.40;99.90;;;;;;5093414;28;20205;-90
2021/12/23 03:16:47;;;;;;;1.23;1.13;;;-2.40;99.90;;;;;;5092475;28;20195;-89
2021/12/23 03:19:13;;;;;;;2.13;2.03;;;-2.40;99.90;;;;;;5089652;28;20189;-90
2021/12/23 03:21:38;;;;;;;1.30;1.20;;;-2.40;99.90;;;;;;5091794;28;20470;-90
2021/12/23 03:24:04;;;;;;;1.20;1.10;;;-2.40;99.90;;;;;;5092290;28;20217;-90
2021/12/23 03:26:30;;;;;;;1.30;1.20;;;-2.40;99.90;;;;;;5092274;28;20185;-91
2021/12/23 03:28:55;;;;;;;1.10;1.00;;;-2.40;99.90;;;;;;5092418;28;20213;-89
2021/12/23 03:31:21;;;;;;;1.07;1.00;;;-2.30;99.90;;;;;;5092832;28;20257;-90
2021/12/23 03:33:47;;;;;;;1.77;1.67;;;-2.40;99.90;;;;;;5091768;28;20189;-90
2021/12/23 03:36:12;;;;;;;3.13;3.03;;;-2.40;99.90;;;;;;5090579;28;20196;-91
2021/12/23 03:38:38;;;;;;;1.20;1.10;;;-2.40;99.90;;;;;;5092640;28;20658;-90
2021/12/23 03:41:03;;;;;;;1.20;1.10;;;-2.40;99.90;;;;;;5091760;28;20517;-90
2021/12/23 03:43:29;;;;;;;1.23;1.13;;;-2.40;99.90;;;;;;5092384;28;20272;-90
2021/12/23 03:45:55;;;;;;;1.30;1.20;;;-2.30;99.90;;;;;;5073177;28;20846;-90
2021/12/23 03:48:21;;;;;;;1.20;1.10;;;-2.30;99.90;;;;;;5092125;28;20459;-90
2021/12/23 03:50:47;;;;;;;1.50;1.40;;;-2.40;99.90;;;;;;5090610;28;20447;-90
2021/12/23 03:53:14;;;;;;;1.83;1.73;;;-2.40;99.90;;;;;;5085615;28;20280;-90
2021/12/23 03:55:40;;;;;;;2.60;1.63;;;-2.30;99.90;;;;;;5090765;28;20428;-90
2021/12/23 03:58:05;;;;;;;2.03;1.93;;;-2.30;99.90;;;;;;5091058;28;20446;-91
2021/12/23 04:00:31;;;;;;;0.97;0.90;;;-2.30;99.90;;;;;;5088941;28;20185;-90
2021/12/23 04:02:57;;;;;;;1.30;1.20;;;-2.30;99.90;;;;;;5090970;28;20672;-91
2021/12/23 04:05:22;;;;;;;1.33;1.23;;;-2.30;99.90;;;;;;5091590;28;20284;-89
2021/12/23 04:07:48;;;;;;;1.20;1.10;;;-2.20;99.90;;;;;;5088801;28;20192;-90
2021/12/23 04:10:18;;;;;;;0.97;0.97;;;-2.20;99.90;;;;;;5090417;28;20553;-90
2021/12/23 04:12:45;;;;;;;2.13;1.93;;;-2.20;99.90;;;;;;5091184;28;20416;-91
2021/12/23 04:15:10;;;;;;;1.20;1.10;;;-2.20;99.90;;;;;;5072992;28;20529;-90
2021/12/23 04:17:37;;;;;;;1.10;1.00;;;-2.20;99.90;;;;;;5090590;28;20525;-90
2021/12/23 04:20:16;;;;;;;1.33;1.23;;;-2.20;99.90;;;;;;5091707;28;20710;-91
2021/12/23 04:22:44;;;;;;;1.20;1.10;;;-2.20;99.90;;;;;;5072270;28;20474;-90
2021/12/23 04:25:12;;;;;;;1.07;1.00;;;-2.20;99.90;;;;;;5090104;28;20415;-90
2021/12/23 04:27:38;;;;;;;1.30;1.20;;;-2.20;99.90;;;;;;5072364;28;20458;-90
2021/12/23 04:30:07;;;;;;;1.77;1.67;;;-2.20;99.90;;;;;;5072725;28;20444;-89
2021/12/23 04:32:33;;;;;;;0.90;0.90;;;-2.20;99.90;;;;;;5089868;28;21200;-90
2021/12/23 04:34:58;;;;;;;1.20;1.10;;;-2.20;99.90;;;;;;5090849;28;20431;-90
2021/12/23 04:37:24;;;;;;;1.20;1.10;;;-2.10;99.90;;;;;;5092254;28;20177;-90
2021/12/23 04:39:49;;;;;;;0.97;0.97;;;-2.10;99.90;;;;;;5072506;28;20655;-91
2021/12/23 04:42:15;;;;;;;1.00;0.90;;;-2.10;99.90;;;;;;5090913;28;20275;-90
2021/12/23 04:44:40;;;;;;;1.67;1.57;;;-2.10;99.90;;;;;;5072025;28;20177;-90
2021/12/23 04:47:06;;;;;;;0.90;0.90;;;-2.10;99.90;;;;;;5091409;28;20189;-90
2021/12/23 04:49:32;;;;;;;1.20;1.10;;;-2.10;99.90;;;;;;5090537;28;20216;-90
2021/12/23 04:51:57;;;;;;;1.20;1.10;;;-2.10;99.90;;;;;;5072629;28;20181;-89
2021/12/23 04:54:23;;;;;;;1.17;1.07;;;-2.10;99.90;;;;;;5071093;28;20759;-91
2021/12/23 04:56:48;;;;;;;2.63;2.43;;;-2.10;99.90;;;;;;5089707;28;20233;-90
2021/12/23 04:59:15;;;;;;;1.00;0.90;;;-2.10;99.90;;;;;;5073240;28;20194;-89
2021/12/23 05:01:40;;;;;;;0.83;0.83;;;-2.10;99.90;;;;;;5088946;28;20193;-90
2021/12/23 05:04:06;;;;;;;1.70;1.60;;;-2.10;99.90;;;;;;5090476;28;20434;-90
2021/12/23 05:06:31;;;;;;;1.40;1.30;;;-2.10;99.90;;;;;;5091455;28;20543;-91
2021/12/23 05:08:57;;;;;;;1.20;1.10;;;-2.00;99.90;;;;;;5090765;28;20217;-90
2021/12/23 05:11:22;;;;;;;1.40;1.30;;;-2.10;99.90;;;;;;5090250;28;20272;-90
2021/12/23 05:13:48;;;;;;;1.40;1.30;;;-2.10;99.90;;;;;;5089436;28;20652;-90
2021/12/23 05:16:15;;;;;;;1.03;0.93;;;-2.10;99.90;;;;;;5090519;28;20181;-89
2021/12/23 05:18:41;;;;;;;1.40;1.30;;;-2.00;99.90;;;;;;5072453;28;20272;-90
2021/12/23 05:21:06;;;;;;;1.20;1.10;;;-2.00;99.90;;;;;;5090595;28;20518;-90
2021/12/23 05:23:32;;;;;;;1.27;1.17;;;-2.00;99.90;;;;;;5090905;28;20304;-91
2021/12/23 05:25:58;;;;;;;2.73;1.77;;;-2.00;99.90;;;;;;5091028;28;20189;-90
2021/12/23 05:28:23;;;;;;;1.00;1.00;;;-1.90;99.90;;;;;;5089408;28;20843;-90
2021/12/23 05:30:49;;;;;;;1.00;1.00;;;-1.90;99.90;;;;;;5072098;28;20550;-90
2021/12/23 05:33:15;;;;;;;1.30;1.20;;;-1.90;99.90;;;;;;5090137;28;20227;-90
2021/12/23 05:35:40;;;;;;;0.90;0.90;;;-1.90;99.90;;;;;;5092745;28;20189;-91
2021/12/23 05:38:06;;;;;;;1.20;1.10;;;-1.90;99.90;;;;;;5090850;28;20188;-90
2021/12/23 05:40:32;;;;;;;1.47;1.40;;;-1.90;99.90;;;;;;5090507;28;20245;-90
2021/12/23 05:42:58;;;;;;;1.27;1.17;;;-2.00;99.90;;;;;;5080804;28;20225;-90
2021/12/23 05:45:24;;;;;;;2.53;1.77;;;-1.90;99.90;;;;;;5090041;28;20487;-89
2021/12/23 05:47:50;;;;;;;1.13;1.03;;;-2.00;99.90;;;;;;5095339;28;20185;-91
2021/12/23 05:50:18;;;;;;;1.03;1.00;;;-2.00;99.90;;;;;;5087915;28;20447;-90
2021/12/23 05:52:44;;;;;;;0.80;0.80;;;-2.00;99.90;;;;;;5089449;28;20424;-90
2021/12/23 05:55:11;;;;;;;1.90;1.80;;;-2.00;99.90;;;;;;5090113;28;20434;-90
2021/12/23 05:57:37;;;;;;;1.53;1.43;;;-1.90;99.90;;;;;;5088798;28;20253;-90
2021/12/23 06:00:10;;;;;;;0.90;0.90;;;-1.90;99.90;;;;;;5089396;28;20907;-91
2021/12/23 06:02:37;;;;;;;0.90;0.90;;;-1.90;99.90;;;;;;5085653;28;20796;-89
2021/12/23 06:05:03;;;;;;;1.30;1.20;;;-1.90;99.90;;;;;;5090209;28;20431;-90
2021/12/23 06:07:29;;;;;;;1.20;1.10;;;-1.90;99.90;;;;;;5089120;28;20579;-90
2021/12/23 06:09:54;;;;;;;8.77;1.77;;;-1.90;99.90;;;;;;5088096;28;20513;-90
2021/12/23 06:12:20;;;;;;;1.10;1.00;;;-1.90;99.90;;;;;;5088320;28;20196;-89
2021/12/23 06:14:45;;;;;;;1.17;1.07;;;-1.90;99.90;;;;;;5071106;28;20741;-89
2021/12/23 06:17:11;;;;;;;1.07;1.00;;;-1.90;99.90;;;;;;5090376;28;20200;-91
2021/12/23 06:19:37;;;;;;;0.90;0.90;;;-1.80;99.90;;;;;;5091205;28;20177;-90
2021/12/23 06:22:02;;;;;;;0.80;0.80;;;-1.80;99.90;;;;;;5074436;28;20248;-89
2021/12/23 06:24:28;;;;;;;1.00;1.00;;;-1.80;99.90;;;;;;5092168;28;20289;-90
2021/12/23 06:26:53;;;;;;;1.40;1.30;;;-1.90;99.90;;;;;;5093597;28;20464;-90
2021/12/23 06:29:19;;;;;;;1.10;1.00;;;-1.80;99.90;;;;;;5091555;28;20283;-90
2021/12/23 06:31:44;;;;;;;0.80;0.80;;;-1.80;99.90;;;;;;5078024;28;20193;-90
2021/12/23 06:34:10;;;;;;;2.33;2.23;;;-1.80;99.90;;;;;;5089739;28;20239;-90
2021/12/23 06:36:36;;;;;;;0.90;0.90;;;-1.80;99.90;;;;;;5090810;28;20181;-89
2021/12/23 06:39:02;;;;;;;1.60;1.50;;;-1.80;99.90;;;;;;5073243;28;20193;-90
2021/12/23 06:41:28;;;;;;;1.10;1.00;;;-1.80;99.90;;;;;;5093020;28;20173;-90
2021/12/23 06:43:53;;;;;;;1.97;1.87;;;-1.80;99.90;;;;;;5093041;28;20442;-89
2021/12/23 06:46:19;;;;;;;2.10;2.00;;;-1.80;99.90;;;;;;5094246;28;20560;-90
2021/12/23 06:48:44;;;;;;;1.70;1.60;;;-1.80;99.90;;;;;;5069517;28;20236;-90
2021/12/23 06:51:10;;;;;;;1.30;1.20;;;-1.80;99.90;;;;;;5075565;28;20200;-90
2021/12/23 06:53:37;;;;;;;1.30;1.20;;;-1.80;99.90;;;;;;5075341;28;20177;-90
2021/12/23 06:56:02;;;;;;;1.20;1.10;;;-1.70;99.90;;;;;;5092189;28;20219;-90
2021/12/23 06:58:30;;;;;;;1.23;1.13;;;-1.70;99.90;;;;;;5091512;28;20455;-90
2021/12/23 07:00:56;;;;;;;1.20;1.10;;;-1.80;99.90;;;;;;5070880;28;20196;-91
2021/12/23 07:03:24;;;;;;;1.07;1.00;;;-1.70;99.90;;;;;;5093369;28;20512;-90
2021/12/23 07:05:56;;;;;;;1.10;1.00;;;-1.70;99.90;;;;;;5092118;28;20177;-90
2021/12/23 07:08:29;;;;;;;1.20;1.10;;;-1.70;99.90;;;;;;5092063;28;20489;-90
2021/12/23 07:10:55;;;;;;;1.20;1.10;;;-1.70;99.90;;;;;;5093180;28;20544;-90
2021/12/23 07:13:21;;;;;;;0.90;0.90;;;-1.70;99.90;;;;;;5092014;28;20497;-89
2021/12/23 07:15:47;;;;;;;0.93;0.93;;;-1.60;99.90;;;;;;5092342;28;20177;-90
2021/12/23 07:18:13;;;;;;;2.13;2.03;;;-1.60;99.90;;;;;;5092298;28;20441;-90
2021/12/23 07:20:38;;;;;;;0.90;0.90;;;-1.70;99.90;;;;;;5114567;27;20427;-89
2021/12/23 07:23:04;;;;;;;1.30;1.20;;;-1.70;99.90;;;;;;5091570;28;20233;-90
2021/12/23 07:25:30;;;;;;;1.00;0.93;;;-1.60;99.90;;;;;;5090500;28;20234;-89
2021/12/23 07:27:55;;;;;;;20.07;2.90;;;-1.60;99.90;;;;;;5091129;28;20193;-90
2021/12/23 07:30:22;;;;;;;2.77;1.17;;;-1.60;99.90;;;;;;5089446;28;20207;-91
2021/12/23 07:32:49;;;;;;;3.53;3.33;;;-1.60;99.90;;;;;;5091760;28;20637;-90
2021/12/23 07:35:16;;;;;;;1.00;0.97;;;-1.50;99.90;;;;;;5074041;28;20447;-91
2021/12/23 07:37:42;;;;;;;1.17;1.07;;;-1.50;99.90;;;;;;5092016;28;20423;-91
2021/12/23 07:40:08;;;;;;;1.93;1.83;;;-1.40;99.90;;;;;;5091795;28;20438;-90
2021/12/23 07:42:34;;;;;;;1.97;1.63;;;-1.50;99.90;;;;;;5090806;28;21148;-89
2021/12/23 07:45:03;;;;;;;1.20;1.10;;;-1.40;99.90;;;;;;5089076;28;20576;-88
2021/12/23 07:47:29;;;;;;;5.80;4.20;;;-1.40;99.90;;;;;;5089675;28;20437;-88
2021/12/23 07:49:56;;;;;;;1.17;1.07;;;-1.50;99.90;;;;;;5073911;28;20521;-87
2021/12/23 07:52:22;;;;;;;1.30;1.20;;;-1.50;99.90;;;;;;5089051;28;20772;-89
2021/12/23 07:54:47;;;;;;;1.83;1.73;;;-1.50;99.90;;;;;;5070826;28;20806;-89
2021/12/23 07:57:13;;;;;;;2.40;2.23;;;-1.50;99.90;;;;;;5088632;28;20435;-89
2021/12/23 07:59:38;;;;;;;1.07;1.00;;;-1.50;99.90;;;;;;5083350;28;20268;-89
2021/12/23 08:02:04;;;;;;;1.10;1.00;;;-1.50;99.90;;;;;;5089097;28;20200;-88
2021/12/23 08:04:33;;;;;;;2.17;1.73;;;-1.50;99.90;;;;;;5088648;28;20173;-89
2021/12/23 08:07:02;;;;;;;0.90;0.90;;;-1.50;99.90;;;;;;5089958;28;20664;-90
2021/12/23 08:09:27;;;;;;;0.90;0.90;;;-1.50;99.90;;;;;;5087714;28;20475;-88
2021/12/23 08:11:53;;;;;;;0.90;0.90;;;-1.50;99.90;;;;;;5089843;28;20434;-89
2021/12/23 08:14:20;;;;;;;0.90;0.90;;;-1.50;99.90;;;;;;5089214;28;20185;-89
2021/12/23 08:16:46;;;;;;;1.37;1.27;;;-1.50;99.90;;;;;;5088028;28;20688;-88
2021/12/23 08:19:12;;;;;;;1.10;1.00;;;-1.50;99.90;;;;;;5087185;28;20483;-89
2021/12/23 08:21:37;;;;;;;1.10;1.00;;;-1.40;99.90;;;;;;5088007;28;20463;-89
2021/12/23 08:24:04;;;;;;;1.10;1.00;;;-1.40;99.90;;;;;;5088949;28;20268;-89
2021/12/23 08:26:30;;;;;;;4.60;3.57;;;-1.50;99.90;;;;;;5065720;28;20177;-88
2021/12/23 08:28:58;;;;;;;0.80;0.80;;;-1.50;99.90;;;;;;5086816;28;20497;-88
2021/12/23 08:31:26;;;;;;;3.20;3.00;;;-1.50;99.90;;;;;;5087700;28;21030;-88
2021/12/23 08:33:52;;;;;;;1.10;1.00;;;-1.50;99.90;;;;;;5088771;28;20456;-88
2021/12/23 08:36:17;;;;;;;1.00;0.93;;;-1.50;99.90;;;;;;5069579;28;20493;-88
2021/12/23 08:38:43;;;;;;;1.20;1.10;;;-1.50;99.90;;;;;;5085572;28;20189;-88
2021/12/23 08:41:09;;;;;;;1.10;1.00;;;-1.50;99.90;;;;;;5087907;28;20185;-88
2021/12/23 08:43:35;;;;;;;2.23;1.97;;;-1.50;99.90;;;;;;5086191;28;20610;-88
2021/12/23 08:46:01;;;;;;;1.70;1.60;;;-1.40;99.90;;;;;;5087476;28;20511;-89
2021/12/23 08:48:27;;;;;;;1.47;1.37;;;-1.40;99.90;;;;;;5077980;28;20990;-88
2021/12/23 08:50:53;;;;;;;1.27;1.17;;;-1.50;99.90;;;;;;5084856;28;20246;-89
2021/12/23 08:53:18;;;;;;;1.30;1.20;;;-1.40;99.90;;;;;;5065723;28;20657;-88
2021/12/23 08:55:44;;;;;;;2.87;2.77;;;-1.40;99.90;;;;;;5062274;28;20581;-88
2021/12/23 08:58:10;;;;;;;0.93;0.90;;;-1.40;99.90;;;;;;5067304;28;21005;-89
2021/12/23 09:00:38;;;;;;;1.00;0.90;;;-1.40;99.90;;;;;;5083756;28;20185;-89
2021/12/23 09:03:05;;;;;;;1.40;1.30;;;-1.40;99.90;;;;;;5086658;28;20585;-87
2021/12/23 09:05:31;;;;;;;1.20;1.10;;;-1.40;99.90;;;;;;5068597;28;20454;-88
2021/12/23 09:07:57;;;;;;;0.83;0.83;;;-1.40;99.90;;;;;;5070849;28;20440;-89
2021/12/23 09:10:23;;;;;;;1.50;1.40;;;-1.30;99.90;;;;;;5086383;28;20459;-88
2021/12/23 09:12:50;;;;;;;0.90;0.90;;;-1.30;99.90;;;;;;5089198;28;20636;-88
2021/12/23 09:15:16;;;;;;;1.17;1.07;;;-1.40;99.90;;;;;;5084084;28;20447;-88
2021/12/23 09:17:41;;;;;;;3.17;1.30;;;-1.40;99.90;;;;;;5083825;28;20801;-88
2021/12/23 09:20:09;;;;;;;0.97;0.90;;;-1.40;99.90;;;;;;5083098;28;20446;-87
2021/12/23 09:22:36;;;;;;;0.90;0.90;;;-1.40;99.90;;;;;;5081347;28;20323;-88
2021/12/23 09:25:07;;;;;;;1.30;1.20;;;-1.30;99.90;;;;;;5088713;28;20446;-89
2021/12/23 09:27:59;;;;;;;2.17;2.07;;;-1.40;99.90;;;;;;5082314;28;20451;-88
2021/12/23 09:33:06;;;;;;;1.50;1.40;;;-1.30;99.90;;;;;;5089742;28;20450;-89
2021/12/23 09:35:32;;;;;;;0.90;0.90;;;-1.30;99.90;;;;;;5082537;28;20471;-89
2021/12/23 09:37:59;;;;;;;1.10;1.00;;;-1.30;99.90;;;;;;5081653;28;20558;-89
2021/12/23 09:40:29;;;;;;;1.20;1.10;;;-1.30;99.90;;;;;;5086317;28;20933;-88
2021/12/23 09:42:59;;;;;;;1.17;1.07;;;-1.20;99.90;;;;;;5084012;28;20471;-88
2021/12/23 09:45:25;;;;;;;1.20;1.10;;;-1.20;99.90;;;;;;5087758;28;20454;-88
2021/12/23 09:47:51;;;;;;;1.10;1.00;;;-1.20;99.90;;;;;;5083522;28;20431;-88
2021/12/23 09:50:21;;;;;;;0.80;0.80;;;-1.20;99.90;;;;;;5087603;28;20443;-88
2021/12/23 09:52:50;;;;;;;1.20;1.10;;;-1.20;99.90;;;;;;5090858;28;20263;-88
2021/12/23 09:55:19;;;;;;;0.90;0.90;;;-1.10;99.90;;;;;;5088227;28;20794;-88
2021/12/23 09:57:48;;;;;;;0.97;0.90;;;-1.10;99.90;;;;;;5089155;28;20466;-87
2021/12/23 10:00:16;;;;;;;1.10;1.00;;;-1.10;99.90;;;;;;5075379;28;20496;-88
2021/12/23 10:02:42;;;;;;;1.10;1.00;;;-1.00;99.90;;;;;;5093222;28;20431;-88
2021/12/23 10:05:15;;;;;;;1.20;1.10;;;-1.00;99.90;;;;;;5088184;28;20439;-87
2021/12/23 10:07:43;;;;;;;3.10;2.30;;;-1.00;99.90;;;;;;5090479;28;20446;-88
2021/12/23 10:10:14;;;;;;;3.83;3.63;;;-1.00;99.90;;;;;;5086375;28;20478;-88
2021/12/23 10:13:10;;;;;;;1.30;1.20;;;-0.90;99.90;;;;;;5090196;28;20431;-89
2021/12/23 10:32:18;;;;;;;4.97;2.80;;;-0.80;99.90;;;;;;5085021;28;20488;-89
2021/12/23 10:37:23;;;;;;;0.80;0.80;;;-0.70;99.90;;;;;;5087453;28;20449;-89
2021/12/23 10:39:50;;;;;;;1.10;1.00;;;-0.70;99.90;;;;;;5087817;28;20603;-88
2021/12/23 10:42:19;;;;;;;0.93;0.90;;;-0.60;99.90;;;;;;5086090;28;20439;-89
2021/12/23 10:44:54;;;;;;;2.13;2.03;;;-0.50;99.90;;;;;;5067074;28;20443;-89
2021/12/23 10:47:40;;;;;;;1.67;1.53;;;-0.50;99.90;;;;;;5086259;28;20988;-89
2021/12/23 10:50:35;;;;;;;1.10;1.00;;;-0.60;99.90;;;;;;5082547;28;20522;-89
2021/12/23 10:53:38;;;;;;;3.03;2.90;;;-0.60;99.90;;;;;;5077336;28;20443;-89
2021/12/23 10:59:13;;;;;;;0.80;0.80;;;-0.50;99.90;;;;;;5091076;28;20484;-90
2021/12/23 11:02:04;;;;;;;1.07;0.97;;;-0.50;99.90;;;;;;5088533;28;20961;-90
2021/12/23 11:04:35;;;;;;;0.97;0.90;;;-0.40;99.90;;;;;;5085276;28;20446;-90
2021/12/23 11:07:17;;;;;;;1.10;1.00;;;-0.50;99.90;;;;;;5090610;28;20450;-89
2021/12/23 11:27:34;;;;;;;1.03;0.93;;;-0.40;99.90;;;;;;5085921;28;20442;-90
2021/12/23 11:30:46;;;;;;;2.73;2.50;;;-0.40;99.90;;;;;;5074083;28;20479;-90
2021/12/23 11:38:35;;;;;;;0.93;0.90;;;-0.50;99.90;;;;;;5088371;28;20534;-91
2021/12/23 11:41:13;;;;;;;1.10;1.00;;;-0.50;99.90;;;;;;5074344;28;20443;-91
2021/12/23 11:43:59;;;;;;;1.10;1.00;;;-0.50;99.90;;;;;;5089258;28;20453;-90
2021/12/23 11:46:26;;;;;;;1.30;1.20;;;-0.40;99.90;;;;;;5091936;28;20922;-91
2021/12/23 11:48:57;;;;;;;1.00;0.90;;;-0.50;99.90;;;;;;5072387;28;21256;-91
2021/12/23 11:51:34;;;;;;;0.97;0.90;;;-0.50;99.90;;;;;;5090360;28;20434;-90
2021/12/23 11:54:05;;;;;;;1.10;1.00;;;-0.50;99.90;;;;;;5086363;28;20459;-90
2021/12/23 11:56:32;;;;;;;1.17;1.07;;;-0.50;99.90;;;;;;5086233;28;20427;-91
2021/12/23 11:59:01;;;;;;;1.13;1.03;;;-0.50;99.90;;;;;;5089306;28;20458;-92
2021/12/23 12:01:39;;;;;;;2.10;2.00;;;-0.50;99.90;;;;;;5092214;28;20427;-91
2021/12/23 12:04:07;;;;;;;1.00;0.90;;;-0.50;99.90;;;;;;5090750;28;20477;-91
2021/12/23 12:06:37;;;;;;;0.97;0.90;;;-0.60;99.90;;;;;;5091793;28;20442;-91
2021/12/23 12:09:28;;;;;;;1.30;1.20;;;-0.50;99.90;;;;;;5095939;28;20479;-92
2021/12/23 12:11:59;;;;;;;0.93;0.93;;;-0.50;99.90;;;;;;5073327;28;20438;-91
2021/12/23 12:14:46;;;;;;;1.77;1.67;;;-0.50;99.90;;;;;;5067167;28;20427;-90
2021/12/23 12:17:26;;;;;;;0.80;0.80;;;-0.50;99.90;;;;;;5091702;28;20434;-90
2021/12/23 12:20:02;;;;;;;0.93;0.90;;;-0.50;99.90;;;;;;5090920;28;20510;-90
2021/12/23 12:22:56;;;;;;;1.20;1.10;;;-0.40;99.90;;;;;;5083929;28;20813;-90
2021/12/23 12:26:02;;;;;;;1.73;1.63;;;-0.50;99.90;;;;;;5090218;28;20791;-90
2021/12/23 12:28:32;;;;;;;1.00;0.90;;;-0.40;99.90;;;;;;5086048;28;20459;-90
2021/12/23 12:31:00;;;;;;;3.37;3.07;;;-0.40;99.90;;;;;;5090039;28;20447;-90
2021/12/23 12:33:25;;;;;;;1.20;1.10;;;-0.40;99.90;;;;;;5091056;28;20419;-90
2021/12/23 12:36:06;;;;;;;1.93;1.37;;;-0.50;99.90;;;;;;5090177;28;21026;-89
2021/12/23 12:38:37;;;;;;;0.80;0.80;;;-0.40;99.90;;;;;;5088566;28;20541;-89
2021/12/23 12:41:19;;;;;;;1.63;1.53;;;-0.40;99.90;;;;;;5088625;28;20869;-91
2021/12/23 12:43:50;;;;;;;1.57;1.47;;;-0.40;99.90;;;;;;5088739;28;20845;-90
2021/12/23 12:46:45;;;;;;;3.70;1.53;;;-0.40;99.90;;;;;;5071796;28;20433;-91
2021/12/23 12:49:23;;;;;;;1.97;1.87;;;-0.40;99.90;;;;;;5070023;28;21064;-90
2021/12/23 12:51:50;;;;;;;2.73;1.73;;;-0.40;99.90;;;;;;5090581;28;20480;-90
2021/12/23 12:54:31;;;;;;;2.07;1.97;;;-0.40;99.90;;;;;;5088751;28;20435;-91
2021/12/23 12:57:05;;;;;;;1.10;1.00;;;-0.40;99.90;;;;;;5096715;28;20435;-91
2021/12/23 13:00:08;;;;;;;1.10;1.00;;;-0.40;99.90;;;;;;5071805;28;20470;-90
2021/12/23 13:02:34;;;;;;;1.50;1.40;;;-0.40;99.90;;;;;;5089405;28;20434;-89
2021/12/23 13:05:10;;;;;;;1.27;1.17;;;-0.40;99.90;;;;;;5088387;28;20444;-89
2021/12/23 13:07:38;;;;;;;1.10;1.00;;;-0.50;99.90;;;;;;5071999;28;20192;-90
2021/12/23 13:10:14;;;;;;;3.10;1.77;;;-0.50;99.90;;;;;;5070712;28;20575;-90
2021/12/23 13:12:47;;;;;;;1.60;1.50;;;-0.40;99.90;;;;;;5087843;28;20435;-92
2021/12/23 13:15:16;;;;;;;1.20;1.10;;;-0.40;99.90;;;;;;5070888;28;20817;-90
2021/12/23 13:17:48;;;;;;;1.20;1.10;;;-0.40;99.90;;;;;;5069735;28;20423;-91
2021/12/23 13:20:16;;;;;;;1.37;1.27;;;-0.40;99.90;;;;;;5089706;28;20434;-91
2021/12/23 13:22:43;;;;;;;2.60;1.60;;;-0.40;99.90;;;;;;5091157;28;20462;-91
2021/12/23 13:25:09;;;;;;;1.10;1.00;;;-0.40;99.90;;;;;;5090093;28;20430;-91
2021/12/23 13:27:39;;;;;;;1.20;1.10;;;-0.40;99.90;;;;;;5072458;28;20431;-92
2021/12/23 13:30:08;;;;;;;2.73;2.50;;;-0.40;99.90;;;;;;5071345;28;20544;-91
2021/12/23 13:32:34;;;;;;;1.03;1.00;;;-0.40;99.90;;;;;;5091665;28;20509;-91
2021/12/23 13:35:15;;;;;;;1.20;1.10;;;-0.40;99.90;;;;;;5090376;28;20522;-91
2021/12/23 13:37:45;;;;;;;2.90;1.47;;;-0.40;99.90;;;;;;5089858;28;20193;-91
2021/12/23 13:40:13;;;;;;;0.90;0.90;;;-0.40;99.90;;;;;;5089801;28;20431;-91
2021/12/23 13:42:40;;;;;;;2.60;2.40;;;-0.40;99.90;;;;;;5072613;28;20973;-91
2021/12/23 13:45:06;;;;;;;1.10;1.00;;;-0.40;99.90;;;;;;5081284;28;20528;-91
2021/12/23 13:50:20;;;;;;;1.10;1.00;;;-0.40;99.90;;;;;;5085731;28;20481;-91
2021/12/23 13:52:49;;;;;;;15.53;2.70;;;-0.40;99.90;;;;;;5090875;28;20442;-92
2021/12/23 13:55:57;;;;;;;1.87;1.77;;;-0.40;99.90;;;;;;5077862;28;20443;-91